createdAt,value
2022-12-27T00:00:24.843Z,96792.16
2022-12-27T00:01:29.624Z,96783.53
2022-12-27T00:02:31.599Z,96784.50
2022-12-27T00:03:36.150Z,96787.88
2022-12-27T00:04:38.129Z,96789.63
2022-12-27T00:05:45.523Z,96783.59
2022-12-27T00:06:47.720Z,96782.00
2022-12-27T00:07:52.515Z,96785.53
2022-12-27T00:08:55.290Z,96778.66
2022-12-27T00:09:59.913Z,96802.69
2022-12-27T00:11:05.720Z,96800.06
2022-12-27T00:12:10.992Z,96788.94
2022-12-27T00:13:12.924Z,96788.03
2022-12-27T00:14:17.843Z,96794.09
2022-12-27T00:15:20.235Z,96801.03
2022-12-27T00:16:27.432Z,96800.13
2022-12-27T00:17:29.435Z,96802.75
2022-12-27T00:18:33.945Z,96810.41
2022-12-27T00:19:35.899Z,96800.13
2022-12-27T00:20:40.367Z,96818.34
2022-12-27T00:21:42.356Z,96815.00
2022-12-27T00:22:47.165Z,96815.06
2022-12-27T00:23:55.563Z,96823.56
2022-12-27T00:25:00.120Z,96809.03
2022-12-27T00:26:02.498Z,96822.91
2022-12-27T00:27:07.138Z,96814.44
2022-12-27T00:28:09.049Z,96823.84
2022-12-27T00:29:13.778Z,96827.28
2022-12-27T00:30:15.747Z,96823.88
2022-12-27T00:31:21.670Z,96823.16
2022-12-27T00:32:29.002Z,96821.41
2022-12-27T00:33:33.081Z,96824.03
2022-12-27T00:34:37.790Z,96822.34
2022-12-27T00:35:39.934Z,96831.00
2022-12-27T00:36:44.441Z,96843.13
2022-12-27T00:37:46.342Z,96834.63
2022-12-27T00:38:51.922Z,96846.63
2022-12-27T00:39:53.896Z,96838.19
2022-12-27T00:40:58.501Z,96826.28
2022-12-27T00:42:00.477Z,96844.28
2022-12-27T00:43:05.038Z,96841.69
2022-12-27T00:44:07.070Z,96841.81
2022-12-27T00:45:13.393Z,96843.63
2022-12-27T00:46:16.166Z,96847.13
2022-12-27T00:47:20.689Z,96865.13
2022-12-27T00:48:25.655Z,96849.72
2022-12-27T00:49:30.177Z,96853.19
2022-12-27T00:50:32.143Z,96867.75
2022-12-27T00:51:36.650Z,96871.16
2022-12-27T00:52:38.595Z,96871.16
2022-12-27T00:53:43.236Z,96867.72
2022-12-27T00:54:45.293Z,96889.09
2022-12-27T00:55:49.790Z,96875.41
2022-12-27T00:56:51.760Z,96872.03
2022-12-27T00:57:57.044Z,96883.09
2022-12-27T00:59:00.681Z,96882.28
2022-12-27T01:00:10.178Z,96874.63
2022-12-27T01:01:15.464Z,96884.91
2022-12-27T01:02:20.079Z,96879.78
2022-12-27T01:03:24.646Z,96881.56
2022-12-27T01:04:29.172Z,96883.28
2022-12-27T01:05:31.092Z,96885.91
2022-12-27T01:06:37.234Z,96884.25
2022-12-27T01:07:39.148Z,96890.31
2022-12-27T01:08:43.815Z,96898.94
2022-12-27T01:09:45.858Z,96895.53
2022-12-27T01:10:50.435Z,96903.28
2022-12-27T01:11:52.365Z,96905.91
2022-12-27T01:12:57.116Z,96907.66
2022-12-27T01:14:02.691Z,96900.00
2022-12-27T01:15:07.969Z,96907.75
2022-12-27T01:16:12.024Z,96909.56
2022-12-27T01:17:16.567Z,96914.72
2022-12-27T01:18:18.517Z,96917.34
2022-12-27T01:19:25.691Z,96948.97
2022-12-27T01:20:27.625Z,96925.06
2022-12-27T01:21:31.060Z,96927.72
2022-12-27T01:22:35.648Z,96931.19
2022-12-27T01:23:38.894Z,96927.81
2022-12-27T01:24:43.393Z,96928.72
2022-12-27T01:25:45.395Z,96935.59
2022-12-27T01:26:49.941Z,96941.59
2022-12-27T01:27:51.910Z,96942.50
2022-12-27T01:28:57.201Z,96946.78
2022-12-27T01:29:59.210Z,96958.75
2022-12-27T01:31:08.535Z,96958.78
2022-12-27T01:32:10.571Z,96965.59
2022-12-27T01:33:15.118Z,96961.31
2022-12-27T01:34:18.068Z,96968.16
2022-12-27T01:35:25.291Z,96967.34
2022-12-27T01:36:29.643Z,96971.66
2022-12-27T01:37:34.152Z,96969.09
2022-12-27T01:38:36.120Z,96973.38
2022-12-27T01:39:40.704Z,96977.69
2022-12-27T01:40:42.693Z,96987.06
2022-12-27T01:42:00.775Z,96981.16
2022-12-27T01:43:05.334Z,96999.06
2022-12-27T01:44:37.344Z,96985.41
2022-12-27T01:45:42.026Z,96992.25
2022-12-27T01:46:44.124Z,96994.00
2022-12-27T01:47:53.885Z,96994.00
2022-12-27T01:48:56.247Z,96996.56
2022-12-27T01:50:08.193Z,96996.59
2022-12-27T01:51:12.933Z,97005.16
2022-12-27T01:52:18.049Z,97009.47
2022-12-27T01:53:25.598Z,96996.72
2022-12-27T01:54:27.573Z,97001.00
2022-12-27T01:55:38.124Z,97003.59
2022-12-27T01:56:40.144Z,97014.66
2022-12-27T01:57:45.057Z,97016.38
2022-12-27T01:58:54.516Z,97008.69
2022-12-27T01:59:56.472Z,97018.06
2022-12-27T02:01:01.835Z,97026.63
2022-12-27T02:02:05.469Z,97026.59
2022-12-27T02:03:10.399Z,97023.19
2022-12-27T02:04:15.860Z,97024.88
2022-12-27T02:05:23.382Z,97029.16
2022-12-27T02:06:29.889Z,97032.59
2022-12-27T02:07:43.802Z,97033.44
2022-12-27T02:08:56.957Z,97036.00
2022-12-27T02:10:00.963Z,97040.25
2022-12-27T02:11:06.434Z,97039.41
2022-12-27T02:12:10.735Z,97035.16
2022-12-27T02:13:16.892Z,97030.88
2022-12-27T02:14:26.199Z,97043.69
2022-12-27T02:15:32.289Z,97033.44
2022-12-27T02:16:34.277Z,97047.09
2022-12-27T02:17:38.872Z,97038.56
2022-12-27T02:18:41.202Z,97040.25
2022-12-27T02:19:53.681Z,97039.41
2022-12-27T02:21:27.061Z,97040.28
2022-12-27T02:23:17.335Z,97040.31
2022-12-27T02:24:43.958Z,97042.00
2022-12-27T02:26:13.335Z,97037.75
2022-12-27T02:27:31.763Z,97042.84
2022-12-27T02:29:03.965Z,97040.31
2022-12-27T02:30:13.024Z,97042.84
2022-12-27T02:31:22.025Z,97047.97
2022-12-27T02:32:33.312Z,97046.28
2022-12-27T02:33:39.073Z,97044.56
2022-12-27T02:34:54.769Z,97048.84
2022-12-27T02:36:02.244Z,97050.53
2022-12-27T02:37:12.847Z,97045.44
2022-12-27T02:38:20.673Z,97059.06
2022-12-27T02:39:27.374Z,97055.63
2022-12-27T02:40:46.522Z,97064.16
2022-12-27T02:43:21.748Z,97049.66
2022-12-27T02:44:41.776Z,97056.47
2022-12-27T02:46:07.155Z,97053.94
2022-12-27T02:47:34.108Z,97051.34
2022-12-27T02:48:51.185Z,97052.19
2022-12-27T02:50:13.877Z,97064.91
2022-12-27T02:51:47.010Z,97065.78
2022-12-27T02:53:09.737Z,97070.88
2022-12-27T02:54:28.709Z,97064.91
2022-12-27T02:56:06.264Z,97077.66
2022-12-27T02:57:22.879Z,97075.13
2022-12-27T02:58:32.084Z,97079.38
2022-12-27T03:00:07.143Z,97070.00
2022-12-27T03:01:33.550Z,97076.78
2022-12-27T03:03:01.602Z,97075.91
2022-12-27T03:04:26.527Z,97075.88
2022-12-27T03:05:45.443Z,97073.34
2022-12-27T03:07:11.082Z,97073.34
2022-12-27T03:08:20.908Z,97075.03
2022-12-27T03:10:10.394Z,97075.03
2022-12-27T03:11:27.563Z,97079.31
2022-12-27T03:12:58.638Z,97075.84
2022-12-27T03:14:31.345Z,97080.09
2022-12-27T03:16:00.527Z,97074.13
2022-12-27T03:17:07.642Z,97076.72
2022-12-27T03:18:15.363Z,97079.28
2022-12-27T03:19:47.770Z,97082.72
2022-12-27T03:21:05.290Z,97087.78
2022-12-27T03:22:24.719Z,97081.00
2022-12-27T03:23:43.569Z,97079.28
2022-12-27T03:25:00.754Z,97086.88
2022-12-27T03:26:08.365Z,97083.47
2022-12-27T03:27:18.748Z,97087.69
2022-12-27T03:28:44.422Z,97093.53
2022-12-27T03:30:14.835Z,97089.25
2022-12-27T03:31:39.268Z,97085.81
2022-12-27T03:33:01.140Z,97085.81
2022-12-27T03:34:29.888Z,97085.00
2022-12-27T03:35:35.606Z,97080.72
2022-12-27T03:36:52.703Z,97093.47
2022-12-27T03:38:05.687Z,97090.09
2022-12-27T03:39:22.209Z,97089.25
2022-12-27T03:40:34.688Z,97089.25
2022-12-27T03:41:55.592Z,97087.63
2022-12-27T03:43:14.784Z,97098.72
2022-12-27T03:44:26.499Z,97092.75
2022-12-27T03:45:49.075Z,97099.56
2022-12-27T03:46:59.470Z,97096.13
2022-12-27T03:48:04.931Z,97107.22
2022-12-27T03:49:20.313Z,97096.19
2022-12-27T03:50:31.495Z,97108.13
2022-12-27T03:51:38.313Z,97102.16
2022-12-27T03:52:48.515Z,97100.53
2022-12-27T03:53:53.891Z,97106.50
2022-12-27T03:54:59.165Z,97098.00
2022-12-27T03:56:01.192Z,97101.44
2022-12-27T03:57:09.025Z,97092.09
2022-12-27T03:58:11.186Z,97102.34
2022-12-27T03:59:15.902Z,97093.84
2022-12-27T04:00:18.414Z,97103.19
2022-12-27T04:01:23.042Z,97093.81
2022-12-27T04:02:27.851Z,97102.31
2022-12-27T04:03:32.818Z,97092.97
2022-12-27T04:04:35.159Z,97103.16
2022-12-27T04:05:39.660Z,97104.88
2022-12-27T04:06:41.590Z,97102.28
2022-12-27T04:07:58.617Z,97113.34
2022-12-27T04:09:15.670Z,97109.09
2022-12-27T04:10:32.820Z,97103.09
2022-12-27T04:11:49.864Z,97116.69
2022-12-27T04:13:06.881Z,97108.19
2022-12-27T04:14:23.892Z,97100.56
2022-12-27T04:15:40.919Z,97107.38
2022-12-27T04:16:58.041Z,97103.09
2022-12-27T04:18:17.803Z,97109.09
2022-12-27T04:19:34.844Z,97104.00
2022-12-27T04:20:51.831Z,97101.44
2022-12-27T04:22:08.884Z,97103.16
2022-12-27T04:23:26.065Z,97108.25
2022-12-27T04:24:43.106Z,97108.25
2022-12-27T04:26:00.609Z,97108.25
2022-12-27T04:27:17.604Z,97112.50
2022-12-27T04:28:34.662Z,97109.94
2022-12-27T04:29:51.677Z,97105.69
2022-12-27T04:31:08.686Z,97104.84
2022-12-27T04:32:25.673Z,97101.44
2022-12-27T04:33:45.277Z,97105.69
2022-12-27T04:34:49.798Z,97099.72
2022-12-27T04:35:51.738Z,97104.00
2022-12-27T04:36:56.289Z,97111.66
2022-12-27T04:37:58.297Z,97104.00
2022-12-27T04:39:02.846Z,97103.19
2022-12-27T04:40:20.980Z,97103.22
2022-12-27T04:41:38.009Z,97106.63
2022-12-27T04:42:54.995Z,97116.03
2022-12-27T04:44:12.022Z,97116.03
2022-12-27T04:45:29.301Z,97115.16
2022-12-27T04:46:46.443Z,97115.16
2022-12-27T04:48:03.503Z,97109.22
2022-12-27T04:49:26.746Z,97110.06
2022-12-27T04:50:45.819Z,97110.91
2022-12-27T04:52:11.279Z,97112.66
2022-12-27T04:53:30.156Z,97119.47
2022-12-27T04:54:59.029Z,97112.66
2022-12-27T04:56:04.033Z,97116.06
2022-12-27T04:57:06.035Z,97116.91
2022-12-27T04:58:10.575Z,97123.75
2022-12-27T04:59:27.558Z,97118.63
2022-12-27T05:00:46.360Z,97122.91
2022-12-27T05:02:03.631Z,97122.03
2022-12-27T05:03:11.816Z,97129.72
2022-12-27T05:04:17.004Z,97125.47
2022-12-27T05:05:21.899Z,97128.88
2022-12-27T05:06:23.839Z,97126.31
2022-12-27T05:07:41.063Z,97122.03
2022-12-27T05:08:58.856Z,97126.31
2022-12-27T05:10:18.661Z,97135.69
2022-12-27T05:11:35.724Z,97129.72
2022-12-27T05:12:52.915Z,97125.47
2022-12-27T05:14:03.599Z,97136.53
2022-12-27T05:15:06.521Z,97134.84
2022-12-27T05:16:11.132Z,97128.84
2022-12-27T05:17:13.602Z,97136.53
2022-12-27T05:18:18.119Z,97143.34
2022-12-27T05:19:25.207Z,97142.50
2022-12-27T05:20:27.139Z,97146.78
2022-12-27T05:21:31.751Z,97144.22
2022-12-27T05:22:48.761Z,97145.91
2022-12-27T05:24:06.056Z,97145.91
2022-12-27T05:25:26.293Z,97144.25
2022-12-27T05:26:32.872Z,97140.81
2022-12-27T05:27:34.822Z,97145.09
2022-12-27T05:28:39.384Z,97151.06
2022-12-27T05:29:41.331Z,97151.06
2022-12-27T05:30:47.006Z,97147.66
2022-12-27T05:31:51.594Z,97154.47
2022-12-27T05:32:54.578Z,97151.06
2022-12-27T05:33:59.640Z,97145.13
2022-12-27T05:35:04.833Z,97148.53
2022-12-27T05:36:11.075Z,97143.41
2022-12-27T05:37:13.109Z,97145.97
2022-12-27T05:38:17.746Z,97144.25
2022-12-27T05:39:19.718Z,97142.53
2022-12-27T05:40:24.390Z,97146.81
2022-12-27T05:41:28.959Z,97153.66
2022-12-27T05:42:31.877Z,97158.75
2022-12-27T05:43:37.138Z,97157.06
2022-12-27T05:44:39.128Z,97156.19
2022-12-27T05:45:43.666Z,97158.75
2022-12-27T05:46:45.682Z,97157.91
2022-12-27T05:47:50.260Z,97156.19
2022-12-27T05:48:52.203Z,97156.19
2022-12-27T05:49:56.694Z,97153.63
2022-12-27T05:51:05.055Z,97154.50
2022-12-27T05:52:09.609Z,97157.88
2022-12-27T05:53:12.029Z,97148.50
2022-12-27T05:54:16.668Z,97150.19
2022-12-27T05:55:18.612Z,97151.06
2022-12-27T05:56:24.071Z,97149.34
2022-12-27T05:57:26.178Z,97151.03
2022-12-27T05:58:30.975Z,97146.75
2022-12-27T05:59:32.955Z,97147.59
2022-12-27T06:00:37.533Z,97146.75
2022-12-27T06:01:39.541Z,97145.91
2022-12-27T06:02:44.930Z,97143.34
2022-12-27T06:03:47.245Z,97150.16
2022-12-27T06:04:51.795Z,97151.00
2022-12-27T06:06:05.125Z,97151.00
2022-12-27T06:07:07.093Z,97155.22
2022-12-27T06:08:12.405Z,97160.34
2022-12-27T06:09:14.478Z,97154.38
2022-12-27T06:10:19.043Z,97147.59
2022-12-27T06:11:21.067Z,97156.94
2022-12-27T06:12:25.585Z,97162.03
2022-12-27T06:13:27.504Z,97160.34
2022-12-27T06:14:32.033Z,97165.44
2022-12-27T06:15:34.144Z,97157.78
2022-12-27T06:16:38.982Z,97162.91
2022-12-27T06:17:41.246Z,97157.78
2022-12-27T06:18:46.250Z,97160.34
2022-12-27T06:19:52.469Z,97156.94
2022-12-27T06:21:07.254Z,97162.88
2022-12-27T06:22:09.209Z,97158.63
2022-12-27T06:23:13.725Z,97156.94
2022-12-27T06:24:16.753Z,97152.69
2022-12-27T06:25:21.567Z,97157.78
2022-12-27T06:26:26.596Z,97160.31
2022-12-27T06:27:31.656Z,97162.91
2022-12-27T06:28:33.744Z,97158.63
2022-12-27T06:29:38.399Z,97165.44
2022-12-27T06:30:40.334Z,97165.44
2022-12-27T06:31:44.965Z,97162.91
2022-12-27T06:32:46.991Z,97156.94
2022-12-27T06:33:53.313Z,97161.19
2022-12-27T06:34:55.271Z,97164.59
2022-12-27T06:36:00.412Z,97168.00
2022-12-27T06:37:04.965Z,97165.41
2022-12-27T06:38:09.500Z,97165.44
2022-12-27T06:39:11.479Z,97167.94
2022-12-27T06:40:16.012Z,97165.44
2022-12-27T06:41:19.225Z,97163.75
2022-12-27T06:42:23.741Z,97172.28
2022-12-27T06:43:25.735Z,97168.00
2022-12-27T06:44:30.355Z,97168.00
2022-12-27T06:45:32.300Z,97174.81
2022-12-27T06:46:36.886Z,97179.91
2022-12-27T06:47:38.886Z,97175.63
2022-12-27T06:48:43.491Z,97182.47
2022-12-27T06:49:45.446Z,97184.16
2022-12-27T06:50:49.947Z,97184.13
2022-12-27T06:51:59.067Z,97179.91
2022-12-27T06:53:06.721Z,97179.88
2022-12-27T06:54:08.696Z,97188.38
2022-12-27T06:55:13.181Z,97185.00
2022-12-27T06:56:17.774Z,97192.63
2022-12-27T06:57:22.250Z,97179.88
2022-12-27T06:58:24.242Z,97184.97
2022-12-27T06:59:28.743Z,97185.81
2022-12-27T07:00:30.727Z,97190.09
2022-12-27T07:01:35.371Z,97189.19
2022-12-27T07:02:38.384Z,97183.22
2022-12-27T07:03:43.686Z,97183.25
2022-12-27T07:04:45.697Z,97193.50
2022-12-27T07:05:50.197Z,97188.38
2022-12-27T07:06:52.148Z,97176.47
2022-12-27T07:07:56.627Z,97171.38
2022-12-27T07:09:01.485Z,97184.13
2022-12-27T07:10:06.296Z,97177.31
2022-12-27T07:11:11.010Z,97190.09
2022-12-27T07:12:15.501Z,97179.88
2022-12-27T07:13:17.425Z,97181.53
2022-12-27T07:14:21.975Z,97184.97
2022-12-27T07:15:24.357Z,97188.38
2022-12-27T07:16:31.406Z,97187.53
2022-12-27T07:17:35.184Z,97196.03
2022-12-27T07:18:40.213Z,97193.47
2022-12-27T07:19:42.226Z,97189.22
2022-12-27T07:20:46.724Z,97188.38
2022-12-27T07:21:51.228Z,97196.84
2022-12-27T07:22:53.141Z,97199.44
2022-12-27T07:23:58.420Z,97200.25
2022-12-27T07:25:02.935Z,97192.63
2022-12-27T07:26:08.690Z,97195.22
2022-12-27T07:27:10.615Z,97196.91
2022-12-27T07:28:15.110Z,97190.94
2022-12-27T07:29:17.253Z,97197.75
2022-12-27T07:30:21.805Z,97196.06
2022-12-27T07:31:26.716Z,97198.59
2022-12-27T07:32:31.332Z,97196.91
2022-12-27T07:33:33.383Z,97197.75
2022-12-27T07:34:37.887Z,97201.16
2022-12-27T07:35:44.966Z,97203.69
2022-12-27T07:36:49.807Z,97202.03
2022-12-27T07:37:52.077Z,97196.94
2022-12-27T07:38:57.550Z,97197.78
2022-12-27T07:39:59.448Z,97193.56
2022-12-27T07:41:06.715Z,97202.09
2022-12-27T07:42:08.895Z,97191.88
2022-12-27T07:43:13.440Z,97196.13
2022-12-27T07:44:15.585Z,97193.56
2022-12-27T07:45:20.154Z,97194.44
2022-12-27T07:46:23.993Z,97193.59
2022-12-27T07:47:28.519Z,97202.13
2022-12-27T07:48:30.398Z,97193.59
2022-12-27T07:49:34.916Z,97196.16
2022-12-27T07:50:36.865Z,97196.19
2022-12-27T07:51:41.406Z,97202.16
2022-12-27T07:52:43.316Z,97198.72
2022-12-27T07:53:50.360Z,97197.03
2022-12-27T07:54:52.280Z,97195.34
2022-12-27T07:55:56.948Z,97201.31
2022-12-27T07:57:05.039Z,97193.66
2022-12-27T07:58:06.972Z,97201.31
2022-12-27T07:59:14.650Z,97203.00
2022-12-27T08:00:17.288Z,97203.03
2022-12-27T08:01:24.109Z,97202.19
2022-12-27T08:02:26.184Z,97208.19
2022-12-27T08:03:30.816Z,97209.03
2022-12-27T08:04:37.224Z,97208.16
2022-12-27T08:05:47.319Z,97203.94
2022-12-27T08:06:49.723Z,97209.06
2022-12-27T08:07:54.293Z,97202.22
2022-12-27T08:09:00.891Z,97205.63
2022-12-27T08:10:02.814Z,97203.06
2022-12-27T08:11:07.734Z,97203.94
2022-12-27T08:12:13.597Z,97199.66
2022-12-27T08:13:18.131Z,97203.06
2022-12-27T08:14:20.269Z,97203.94
2022-12-27T08:15:25.395Z,97205.66
2022-12-27T08:16:30.995Z,97203.09
2022-12-27T08:17:33.291Z,97203.94
2022-12-27T08:18:38.087Z,97202.25
2022-12-27T08:19:40.124Z,97198.81
2022-12-27T08:20:45.080Z,97199.69
2022-12-27T08:21:47.342Z,97199.69
2022-12-27T08:22:52.320Z,97198.84
2022-12-27T08:23:54.449Z,97188.59
2022-12-27T08:24:59.410Z,97194.56
2022-12-27T08:26:01.589Z,97190.28
2022-12-27T08:27:06.759Z,97193.72
2022-12-27T08:28:13.412Z,97192.84
2022-12-27T08:29:18.253Z,97192.03
2022-12-27T08:30:20.852Z,97193.72
2022-12-27T08:31:25.922Z,97196.28
2022-12-27T08:32:28.225Z,97194.56
2022-12-27T08:33:33.370Z,97199.69
2022-12-27T08:34:35.625Z,97197.97
2022-12-27T08:35:52.599Z,97187.75
2022-12-27T08:36:59.031Z,97195.41
2022-12-27T08:38:01.665Z,97197.13
2022-12-27T08:39:07.618Z,97188.59
2022-12-27T08:40:10.830Z,97192.84
2022-12-27T08:41:15.575Z,97197.91
2022-12-27T08:42:17.768Z,97195.31
2022-12-27T08:43:25.557Z,97196.91
2022-12-27T08:44:30.232Z,97199.47
2022-12-27T08:45:32.282Z,97198.44
2022-12-27T08:46:37.207Z,97204.22
2022-12-27T08:47:39.612Z,97190.31
2022-12-27T08:48:44.515Z,97189.44
2022-12-27T08:49:46.594Z,97193.00
2022-12-27T08:50:51.440Z,97189.16
2022-12-27T08:51:53.493Z,97189.09
2022-12-27T08:53:00.443Z,97192.28
2022-12-27T08:54:02.611Z,97191.50
2022-12-27T08:55:08.410Z,97190.25
2022-12-27T08:56:10.540Z,97190.41
2022-12-27T08:57:15.324Z,97188.56
2022-12-27T08:58:17.345Z,97191.56
2022-12-27T08:59:24.733Z,97185.53
2022-12-27T09:00:28.411Z,97190.34
2022-12-27T09:01:33.405Z,97192.13
2022-12-27T09:02:36.173Z,97187.66
2022-12-27T09:03:41.402Z,97194.22
2022-12-27T09:04:43.757Z,97196.53
2022-12-27T09:05:50.034Z,97177.13
2022-12-27T09:06:54.965Z,97179.88
2022-12-27T09:07:58.642Z,97175.88
2022-12-27T09:09:03.373Z,97188.91
2022-12-27T09:10:06.970Z,97184.56
2022-12-27T09:11:14.270Z,97188.78
2022-12-27T09:12:16.335Z,97198.53
2022-12-27T09:13:21.134Z,97187.69
2022-12-27T09:14:29.238Z,97182.88
2022-12-27T09:15:31.423Z,97189.84
2022-12-27T09:16:37.049Z,97185.94
2022-12-27T09:17:39.330Z,97191.72
2022-12-27T09:18:45.525Z,97177.13
2022-12-27T09:19:50.162Z,97175.47
2022-12-27T09:20:52.589Z,97179.84
2022-12-27T09:21:57.387Z,97189.63
2022-12-27T09:24:42.784Z,97197.03
2022-12-27T09:25:45.124Z,97196.78
2022-12-27T09:26:49.864Z,97205.06
2022-12-27T09:27:52.117Z,97193.66
2022-12-27T09:28:57.767Z,97189.63
2022-12-27T09:30:02.702Z,97187.84
2022-12-27T09:31:08.109Z,97191.22
2022-12-27T09:32:10.444Z,97191.06
2022-12-27T09:33:15.460Z,97190.16
2022-12-27T09:34:17.583Z,97198.94
2022-12-27T09:35:22.475Z,97199.44
2022-12-27T09:36:27.370Z,97194.13
2022-12-27T09:37:32.230Z,97203.22
2022-12-27T09:38:37.743Z,97191.16
2022-12-27T09:39:39.861Z,97196.28
2022-12-27T09:40:56.121Z,97205.59
2022-12-27T09:43:44.457Z,97189.72
2022-12-27T09:44:51.839Z,97198.75
2022-12-27T09:46:00.610Z,97200.41
2022-12-27T09:47:11.253Z,97197.97
2022-12-27T09:48:20.559Z,97208.13
2022-12-27T09:49:30.344Z,97203.94
2022-12-27T09:50:38.584Z,97203.47
2022-12-27T09:51:48.850Z,97200.34
2022-12-27T09:53:01.427Z,97206.53
2022-12-27T09:54:14.960Z,97212.88
2022-12-27T09:55:21.111Z,97210.97
2022-12-27T09:56:54.004Z,97209.81
2022-12-27T09:58:06.252Z,97200.88
2022-12-27T09:59:16.329Z,97203.63
2022-12-27T10:00:34.820Z,97209.38
2022-12-27T10:01:44.851Z,97193.66
2022-12-27T10:02:48.061Z,97200.00
2022-12-27T10:03:53.300Z,97200.81
2022-12-27T10:05:19.815Z,97212.53
2022-12-27T10:06:49.924Z,97221.41
2022-12-27T10:08:13.085Z,97224.22
2022-12-27T10:09:34.814Z,97222.84
2022-12-27T10:10:50.310Z,97217.81
2022-12-27T10:12:04.684Z,97222.75
2022-12-27T10:13:16.831Z,97223.28
2022-12-27T10:14:33.594Z,97219.28
2022-12-27T10:15:43.999Z,97219.97
2022-12-27T10:16:59.885Z,97223.16
2022-12-27T10:18:17.161Z,97208.63
2022-12-27T10:19:32.182Z,97212.53
2022-12-27T10:20:54.906Z,97210.09
2022-12-27T10:22:15.181Z,97216.13
2022-12-27T10:23:21.104Z,97201.00
2022-12-27T10:24:28.930Z,97209.34
2022-12-27T10:25:31.635Z,97210.34
2022-12-27T10:26:36.515Z,97208.31
2022-12-27T10:27:41.011Z,97207.50
2022-12-27T10:28:50.309Z,97209.03
2022-12-27T10:29:55.746Z,97201.50
2022-12-27T10:31:47.993Z,97213.38
2022-12-27T10:32:55.438Z,97221.47
2022-12-27T10:34:00.808Z,97225.78
2022-12-27T10:35:04.455Z,97221.75
2022-12-27T10:36:14.572Z,97212.97
2022-12-27T10:37:16.652Z,97216.47
2022-12-27T10:38:21.996Z,97212.75
2022-12-27T10:39:32.325Z,97209.34
2022-12-27T10:40:43.397Z,97213.22
2022-12-27T10:42:00.439Z,97209.44
2022-12-27T10:43:05.106Z,97210.59
2022-12-27T10:44:13.475Z,97202.75
2022-12-27T10:45:32.556Z,97188.28
2022-12-27T10:46:37.410Z,97190.72
2022-12-27T10:47:40.383Z,97200.13
2022-12-27T10:49:22.654Z,97184.25
2022-12-27T10:50:24.494Z,97197.16
2022-12-27T10:51:31.633Z,97189.44
2022-12-27T10:52:35.507Z,97196.63
2022-12-27T10:53:42.721Z,97193.78
2022-12-27T10:54:57.426Z,97185.59
2022-12-27T10:56:10.935Z,97184.28
2022-12-27T10:57:28.934Z,97184.84
2022-12-27T10:58:38.813Z,97187.28
2022-12-27T10:59:43.843Z,97191.13
2022-12-27T11:00:53.672Z,97179.75
2022-12-27T11:02:19.644Z,97174.09
2022-12-27T11:03:21.884Z,97175.78
2022-12-27T11:04:29.861Z,97176.88
2022-12-27T11:05:34.023Z,97178.09
2022-12-27T11:06:39.130Z,97175.66
2022-12-27T11:07:44.210Z,97174.72
2022-12-27T11:08:46.290Z,97164.78
2022-12-27T11:09:51.493Z,97162.88
2022-12-27T11:11:12.436Z,97161.25
2022-12-27T11:12:24.021Z,97168.44
2022-12-27T11:13:25.874Z,97162.25
2022-12-27T11:14:30.783Z,97158.91
2022-12-27T11:15:38.633Z,97166.97
2022-12-27T11:16:44.280Z,97159.91
2022-12-27T11:17:48.387Z,97167.44
2022-12-27T11:18:56.891Z,97175.34
2022-12-27T11:20:09.173Z,97165.13
2022-12-27T11:21:24.122Z,97177.44
2022-12-27T11:22:32.373Z,97172.31
2022-12-27T11:23:42.324Z,97179.56
2022-12-27T11:24:49.825Z,97178.16
2022-12-27T11:25:54.773Z,97176.38
2022-12-27T11:27:01.924Z,97168.94
2022-12-27T11:28:21.850Z,97163.69
2022-12-27T11:29:30.959Z,97161.66
2022-12-27T11:30:36.324Z,97157.31
2022-12-27T11:31:46.727Z,97168.75
2022-12-27T11:32:48.992Z,97166.22
2022-12-27T11:33:55.931Z,97159.88
2022-12-27T11:35:00.781Z,97158.75
2022-12-27T11:36:07.511Z,97169.34
2022-12-27T11:37:16.427Z,97166.03
2022-12-27T11:38:24.670Z,97164.09
2022-12-27T11:39:52.081Z,97150.56
2022-12-27T11:41:04.737Z,97151.53
2022-12-27T11:42:18.192Z,97148.50
2022-12-27T11:43:25.565Z,97151.56
2022-12-27T11:44:33.013Z,97152.41
2022-12-27T11:45:40.805Z,97145.91
2022-12-27T11:46:53.917Z,97163.53
2022-12-27T11:48:06.104Z,97168.88
2022-12-27T11:49:18.106Z,97154.59
2022-12-27T11:50:42.731Z,97176.78
2022-12-27T11:52:18.233Z,97159.91
2022-12-27T11:53:47.748Z,97166.16
2022-12-27T11:55:16.378Z,97157.50
2022-12-27T11:56:26.501Z,97150.97
2022-12-27T11:57:43.351Z,97149.88
2022-12-27T11:59:10.542Z,97145.16
2022-12-27T12:00:23.032Z,97140.75
2022-12-27T12:01:44.492Z,97141.97
2022-12-27T12:03:18.031Z,97134.38
2022-12-27T12:05:04.875Z,97132.72
2022-12-27T12:06:17.276Z,97132.97
2022-12-27T12:07:43.061Z,97140.84
2022-12-27T12:09:21.437Z,97150.09
2022-12-27T12:10:36.188Z,97156.97
2022-12-27T12:11:59.190Z,97163.63
2022-12-27T12:13:24.110Z,97169.69
2022-12-27T12:14:58.647Z,97165.75
2022-12-27T12:16:23.871Z,97176.78
2022-12-27T12:17:49.908Z,97180.78
2022-12-27T12:19:16.004Z,97164.47
2022-12-27T12:20:50.769Z,97163.91
2022-12-27T12:22:13.156Z,97168.16
2022-12-27T12:23:29.583Z,97162.84
2022-12-27T12:25:06.948Z,97160.28
2022-12-27T12:26:19.847Z,97153.28
2022-12-27T12:27:42.523Z,97152.94
2022-12-27T12:29:28.560Z,97150.22
2022-12-27T12:30:48.340Z,97136.94
2022-12-27T12:32:30.685Z,97141.59
2022-12-27T12:33:51.265Z,97136.03
2022-12-27T12:35:31.302Z,97131.56
2022-12-27T12:36:52.961Z,97144.53
2022-12-27T12:38:19.663Z,97142.78
2022-12-27T12:39:37.187Z,97156.09
2022-12-27T12:41:04.851Z,97159.28
2022-12-27T12:42:23.421Z,97161.00
2022-12-27T12:43:49.239Z,97170.53
2022-12-27T12:45:22.676Z,97171.56
2022-12-27T12:46:32.878Z,97179.69
2022-12-27T12:47:58.211Z,97166.28
2022-12-27T12:49:10.460Z,97158.03
2022-12-27T12:50:31.885Z,97160.63
2022-12-27T12:52:25.961Z,97156.94
2022-12-27T12:53:47.733Z,97163.06
2022-12-27T12:55:18.573Z,97166.13
2022-12-27T12:56:43.494Z,97163.13
2022-12-27T12:58:02.133Z,97160.38
2022-12-27T12:59:36.887Z,97156.44
2022-12-27T13:01:05.268Z,97162.44
2022-12-27T13:02:40.007Z,97164.22
2022-12-27T13:03:58.408Z,97153.91
2022-12-27T13:05:14.019Z,97167.47
2022-12-27T13:06:34.910Z,97157.91
2022-12-27T13:07:53.628Z,97164.34
2022-12-27T13:09:05.920Z,97164.63
2022-12-27T13:10:34.379Z,97171.00
2022-12-27T13:11:49.594Z,97164.16
2022-12-27T13:12:58.617Z,97158.78
2022-12-27T13:14:30.212Z,97162.53
2022-12-27T13:15:48.303Z,97154.97
2022-12-27T13:16:58.762Z,97157.22
2022-12-27T13:18:14.891Z,97150.06
2022-12-27T13:19:37.906Z,97150.63
2022-12-27T13:21:06.453Z,97149.59
2022-12-27T13:22:16.195Z,97154.63
2022-12-27T13:23:33.585Z,97153.78
2022-12-27T13:24:50.615Z,97142.22
2022-12-27T13:26:09.530Z,97143.28
2022-12-27T13:27:24.730Z,97149.00
2022-12-27T13:28:36.968Z,97144.50
2022-12-27T13:30:03.062Z,97149.81
2022-12-27T13:31:25.718Z,97139.34
2022-12-27T13:32:42.194Z,97139.41
2022-12-27T13:33:54.292Z,97131.28
2022-12-27T13:35:14.930Z,97133.31
2022-12-27T13:36:29.711Z,97127.66
2022-12-27T13:37:49.605Z,97133.56
2022-12-27T13:39:08.115Z,97134.97
2022-12-27T13:40:39.113Z,97121.75
2022-12-27T13:41:59.291Z,97134.06
2022-12-27T13:43:35.044Z,97134.13
2022-12-27T13:44:50.156Z,97131.81
2022-12-27T13:46:15.036Z,97130.16
2022-12-27T13:47:34.262Z,97130.41